CJW7 weather

Cigar Lake Airport
Cigar Lake, Saskatchewan, Canada

Public forecast

Using degrees Celsius for public forecast. Weather courtesy of forecast.io.

Closest aviation weather report (METAR) to Cigar Lake Airport

Closest report is Key Lake Airport, 60.1 nm (111.4 km) SW. Retrieved 2020/07/16 00:25 UTC (8 minutes ago):

CYKJ 160025Z AUTO 30013G20KT 9SM SCT022 SCT035 BKN100 15/12 A2954 RMK SLP015 DENSITY ALT 2400FT

Closest aviation forecast (TAF) to Cigar Lake Airport

Closest forecast is Key Lake Airport, 60.1 nm (111.4 km) SW. Retrieved 2020/07/15 19:00 UTC (6 hours ago):

TAF CYKJ 151838Z 1519/1524 31012G22KT P6SM SCT015 BKN025 TEMPO 1519/1524 5SM -SHRA BR BKN012 OVC025 RMK FCST BASED ON AUTO OBS NXT FCST WILL BE ISSUED AT 160945Z